createdAt,value
2023-09-08T00:00:43.573Z,80.66
2023-09-08T00:01:43.690Z,80.97
2023-09-08T00:02:43.575Z,80.36
2023-09-08T00:03:43.623Z,81.38
2023-09-08T00:04:43.548Z,81.07
2023-09-08T00:05:43.516Z,82.29
2023-09-08T00:06:43.531Z,81.68
2023-09-08T00:07:43.494Z,80.77
2023-09-08T00:08:43.479Z,80.50
2023-09-08T00:09:43.486Z,80.91
2023-09-08T00:10:43.458Z,81.21
2023-09-08T00:11:43.465Z,81.41
2023-09-08T00:12:43.430Z,81.72
2023-09-08T00:13:43.465Z,81.92
2023-09-08T00:14:43.377Z,82.64
2023-09-08T00:15:43.421Z,83.04
2023-09-08T00:16:43.438Z,82.73
2023-09-08T00:17:43.396Z,82.33
2023-09-08T00:18:43.348Z,82.64
2023-09-08T00:19:43.389Z,83.14
2023-09-08T00:20:43.393Z,82.64
2023-09-08T00:21:43.301Z,82.23
2023-09-08T00:22:43.360Z,82.53
2023-09-08T00:23:43.312Z,83.79
2023-09-08T00:24:43.296Z,83.08
2023-09-08T00:25:43.279Z,83.48
2023-09-08T00:26:43.219Z,81.96
2023-09-08T00:27:43.282Z,82.67
2023-09-08T00:28:43.207Z,83.38
2023-09-08T00:29:43.223Z,82.26
2023-09-08T00:30:43.181Z,81.56
2023-09-08T00:31:43.178Z,81.66
2023-09-08T00:32:43.279Z,81.45
2023-09-08T00:33:43.222Z,82.06
2023-09-08T00:34:43.128Z,82.47
2023-09-08T00:35:43.109Z,81.45
2023-09-08T00:36:43.119Z,80.78
2023-09-08T00:37:43.110Z,80.88
2023-09-08T00:38:43.095Z,80.78
2023-09-08T00:39:43.063Z,82.10
2023-09-08T00:40:43.057Z,81.79
2023-09-08T00:41:43.061Z,81.59
2023-09-08T00:42:43.031Z,82.31
2023-09-08T00:43:43.026Z,82.31
2023-09-08T00:44:42.997Z,82.10
2023-09-08T00:45:43.062Z,81.79
2023-09-08T00:46:43.016Z,81.79
2023-09-08T00:47:43.073Z,82.51
2023-09-08T00:48:42.960Z,81.59
2023-09-08T00:49:42.936Z,82.31
2023-09-08T00:50:42.981Z,82.20
2023-09-08T00:51:42.928Z,81.29
2023-09-08T00:52:42.889Z,80.62
2023-09-08T00:53:42.956Z,80.92
2023-09-08T00:54:42.907Z,80.82
2023-09-08T00:55:42.866Z,81.33
2023-09-08T00:56:42.867Z,81.84
2023-09-08T00:57:42.835Z,82.24
2023-09-08T00:58:42.814Z,82.34
2023-09-08T00:59:42.806Z,81.23
2023-09-08T01:00:42.812Z,81.43
2023-09-08T01:01:42.776Z,80.82
2023-09-08T01:02:42.875Z,80.41
2023-09-08T01:03:42.787Z,80.51
2023-09-08T01:04:42.960Z,79.90
2023-09-08T01:05:42.761Z,79.80
2023-09-08T01:06:42.717Z,80.00
2023-09-08T01:07:42.714Z,79.60
2023-09-08T01:08:42.916Z,79.60
2023-09-08T01:09:42.807Z,80.35
2023-09-08T01:10:42.662Z,80.55
2023-09-08T01:11:42.704Z,81.46
2023-09-08T01:12:42.638Z,81.16
2023-09-08T01:13:42.649Z,80.24
2023-09-08T01:14:42.653Z,80.45
2023-09-08T01:15:42.698Z,79.23
2023-09-08T01:16:42.646Z,79.53
2023-09-08T01:17:42.725Z,79.94
2023-09-08T01:18:42.674Z,79.53
2023-09-08T01:19:42.559Z,79.63
2023-09-08T01:20:42.515Z,80.24
2023-09-08T01:21:42.546Z,80.96
2023-09-08T01:22:42.507Z,80.96
2023-09-08T01:23:42.496Z,82.07
2023-09-08T01:24:42.889Z,83.20
2023-09-08T01:25:42.463Z,82.59
2023-09-08T01:26:42.458Z,82.38
2023-09-08T01:27:42.433Z,81.71
2023-09-08T01:28:42.482Z,82.12
2023-09-08T01:29:42.408Z,81.91
2023-09-08T01:30:42.395Z,82.32
2023-09-08T01:31:42.481Z,82.93
2023-09-08T01:32:42.398Z,83.74
2023-09-08T01:33:42.366Z,84.25
2023-09-08T01:34:42.328Z,83.13
2023-09-08T01:35:42.333Z,82.82
2023-09-08T01:36:42.313Z,81.91
2023-09-08T01:37:42.323Z,82.42
2023-09-08T01:38:42.348Z,82.32
2023-09-08T01:39:42.280Z,82.01
2023-09-08T01:40:42.270Z,81.13
2023-09-08T01:41:42.247Z,80.73
2023-09-08T01:42:42.277Z,80.42
2023-09-08T01:43:42.233Z,80.32
2023-09-08T01:44:42.215Z,80.52
2023-09-08T01:45:42.239Z,80.73
2023-09-08T01:46:42.386Z,81.65
2023-09-08T01:47:42.216Z,82.87
2023-09-08T01:48:42.184Z,83.48
2023-09-08T01:49:42.148Z,82.87
2023-09-08T01:50:42.121Z,81.65
2023-09-08T01:51:42.169Z,80.83
2023-09-08T01:52:42.102Z,81.04
2023-09-08T01:53:42.101Z,82.46
2023-09-08T01:54:42.155Z,82.46
2023-09-08T01:55:42.084Z,82.15
2023-09-08T01:56:42.069Z,81.68
2023-09-08T01:57:42.037Z,81.99
2023-09-08T01:58:42.047Z,82.29
2023-09-08T01:59:41.998Z,81.38
2023-09-08T02:00:42.034Z,81.79
2023-09-08T02:01:42.014Z,82.19
2023-09-08T02:02:42.010Z,82.40
2023-09-08T02:03:41.956Z,82.60
2023-09-08T02:04:42.114Z,81.99
2023-09-08T02:05:41.988Z,81.79
2023-09-08T02:06:41.922Z,81.99
2023-09-08T02:07:41.902Z,82.70
2023-09-08T02:08:41.884Z,81.79
2023-09-08T02:09:41.879Z,82.40
2023-09-08T02:10:41.886Z,83.42
2023-09-08T02:11:41.853Z,82.70
2023-09-08T02:12:41.836Z,82.80
2023-09-08T02:13:41.834Z,84.74
2023-09-08T02:14:41.884Z,86.06
2023-09-08T02:15:41.910Z,86.37
2023-09-08T02:16:41.797Z,86.37
2023-09-08T02:17:41.788Z,86.06
2023-09-08T02:18:41.769Z,84.58
2023-09-08T02:19:41.819Z,84.17
2023-09-08T02:20:41.726Z,82.94
2023-09-08T02:21:41.728Z,82.64
2023-09-08T02:22:41.708Z,82.94
2023-09-08T02:23:41.969Z,82.84
2023-09-08T02:24:41.684Z,82.23
2023-09-08T02:25:41.686Z,81.93
2023-09-08T02:26:41.649Z,82.37
2023-09-08T02:27:41.650Z,82.47
2023-09-08T02:28:41.660Z,82.07
2023-09-08T02:29:41.629Z,82.88
2023-09-08T02:30:41.615Z,82.37
2023-09-08T02:31:41.601Z,82.47
2023-09-08T02:32:41.596Z,82.98
2023-09-08T02:33:41.684Z,82.78
2023-09-08T02:34:41.560Z,83.09
2023-09-08T02:35:41.547Z,82.37
2023-09-08T02:36:41.538Z,82.37
2023-09-08T02:37:41.494Z,82.17
2023-09-08T02:38:41.513Z,81.96
2023-09-08T02:39:41.476Z,82.37
2023-09-08T02:40:41.459Z,82.57
2023-09-08T02:41:41.455Z,83.90
2023-09-08T02:42:41.512Z,83.29
2023-09-08T02:43:41.436Z,83.39
2023-09-08T02:44:41.418Z,82.82
2023-09-08T02:45:41.464Z,82.51
2023-09-08T02:46:41.396Z,82.10
2023-09-08T02:47:41.444Z,81.70
2023-09-08T02:48:41.367Z,82.21
2023-09-08T02:49:41.401Z,81.90
2023-09-08T02:50:41.324Z,83.33
2023-09-08T02:51:41.387Z,83.43
2023-09-08T02:52:41.329Z,83.84
2023-09-08T02:53:41.288Z,82.41
2023-09-08T02:54:41.317Z,82.31
2023-09-08T02:55:41.316Z,81.90
2023-09-08T02:56:41.258Z,82.00
2023-09-08T02:57:41.233Z,82.00
2023-09-08T02:58:41.221Z,81.29
2023-09-08T02:59:41.219Z,81.18
2023-09-08T03:00:41.188Z,81.90
2023-09-08T03:01:41.291Z,83.12
2023-09-08T03:02:41.289Z,83.84
2023-09-08T03:03:41.195Z,84.11
2023-09-08T03:04:41.155Z,84.11
2023-09-08T03:05:41.130Z,83.90
2023-09-08T03:06:41.140Z,84.72
2023-09-08T03:07:41.177Z,84.92
2023-09-08T03:08:41.096Z,85.02
2023-09-08T03:09:41.094Z,84.20
2023-09-08T03:10:41.243Z,84.72
2023-09-08T03:11:41.073Z,85.43
2023-09-08T03:12:41.054Z,86.15
2023-09-08T03:13:41.040Z,86.04
2023-09-08T03:14:41.012Z,85.98
2023-09-08T03:15:41.037Z,85.88
2023-09-08T03:16:41.150Z,84.86
2023-09-08T03:17:41.003Z,84.75
2023-09-08T03:18:40.962Z,83.53
2023-09-08T03:19:41.023Z,82.92
2023-09-08T03:20:40.970Z,83.63
2023-09-08T03:21:40.914Z,83.73
2023-09-08T03:22:40.905Z,86.18
2023-09-08T03:23:40.993Z,85.77
2023-09-08T03:24:40.911Z,85.37
2023-09-08T03:25:40.868Z,83.94
2023-09-08T03:26:40.890Z,84.75
2023-09-08T03:27:40.855Z,85.37
2023-09-08T03:28:40.836Z,86.18
2023-09-08T03:29:40.827Z,87.20
2023-09-08T03:30:40.803Z,86.12
2023-09-08T03:31:40.983Z,86.73
2023-09-08T03:32:40.861Z,86.02
2023-09-08T03:33:40.896Z,85.41
2023-09-08T03:34:40.929Z,85.61
2023-09-08T03:35:40.756Z,84.80
2023-09-08T03:36:40.813Z,84.80
2023-09-08T03:37:40.723Z,84.28
2023-09-08T03:38:40.709Z,84.28
2023-09-08T03:39:40.670Z,84.28
2023-09-08T03:40:40.676Z,84.49
2023-09-08T03:41:40.649Z,84.59
2023-09-08T03:42:40.687Z,85.71
2023-09-08T03:43:40.643Z,86.94
2023-09-08T03:44:40.614Z,87.35
2023-09-08T03:45:40.655Z,87.55
2023-09-08T03:46:40.728Z,87.45
2023-09-08T03:47:40.647Z,86.73
2023-09-08T03:48:40.587Z,85.30
2023-09-08T03:49:40.635Z,84.01
2023-09-08T03:50:40.536Z,83.00
2023-09-08T03:51:40.524Z,82.89
2023-09-08T03:52:40.526Z,82.18
2023-09-08T03:53:40.601Z,81.87
2023-09-08T03:54:40.526Z,81.26
2023-09-08T03:55:40.484Z,81.05
2023-09-08T03:56:40.464Z,81.26
2023-09-08T03:57:40.462Z,81.98
2023-09-08T03:58:40.435Z,83.92
2023-09-08T03:59:40.452Z,82.89
2023-09-08T04:00:40.417Z,81.77
2023-09-08T04:01:40.440Z,82.18
2023-09-08T04:02:40.426Z,84.12
2023-09-08T04:03:40.385Z,84.74
2023-09-08T04:04:40.357Z,85.14
2023-09-08T04:05:40.347Z,84.63
2023-09-08T04:06:40.335Z,85.14
2023-09-08T04:07:40.333Z,85.28
2023-09-08T04:08:40.304Z,85.49
2023-09-08T04:09:40.287Z,85.89
2023-09-08T04:10:40.295Z,84.57
2023-09-08T04:11:40.316Z,83.54
2023-09-08T04:12:40.255Z,82.53
2023-09-08T04:13:40.231Z,81.51
2023-09-08T04:14:40.244Z,81.91
2023-09-08T04:15:40.276Z,82.73
2023-09-08T04:16:40.225Z,81.91
2023-09-08T04:17:40.258Z,80.89
2023-09-08T04:18:40.199Z,80.89
2023-09-08T04:19:40.177Z,80.69
2023-09-08T04:20:40.167Z,80.58
2023-09-08T04:21:40.139Z,80.38
2023-09-08T04:22:40.111Z,81.40
2023-09-08T04:23:40.108Z,81.51
2023-09-08T04:24:40.119Z,80.58
2023-09-08T04:25:40.097Z,79.50
2023-09-08T04:26:40.063Z,80.28
2023-09-08T04:27:40.053Z,81.71
2023-09-08T04:28:40.036Z,81.71
2023-09-08T04:29:40.096Z,81.03
2023-09-08T04:30:40.105Z,82.36
2023-09-08T04:31:40.018Z,83.44
2023-09-08T04:32:40.033Z,84.30
2023-09-08T04:33:40.302Z,83.38
2023-09-08T04:34:39.971Z,83.18
2023-09-08T04:35:39.952Z,83.89
2023-09-08T04:36:39.952Z,83.79
2023-09-08T04:37:39.935Z,82.56
2023-09-08T04:38:39.917Z,83.28
2023-09-08T04:39:39.945Z,82.46
2023-09-08T04:40:39.894Z,84.09
2023-09-08T04:41:39.873Z,83.18
2023-09-08T04:42:39.929Z,82.87
2023-09-08T04:43:39.852Z,82.36
2023-09-08T04:44:39.894Z,81.74
2023-09-08T04:45:39.841Z,81.74
2023-09-08T04:46:39.887Z,80.52
2023-09-08T04:47:39.823Z,79.50
2023-09-08T04:48:40.930Z,79.50
2023-09-08T04:49:39.808Z,79.19
2023-09-08T04:50:39.751Z,79.70
2023-09-08T04:51:39.761Z,80.83
2023-09-08T04:52:39.748Z,79.50
2023-09-08T04:53:39.739Z,78.78
2023-09-08T04:54:39.757Z,78.78
2023-09-08T04:55:39.686Z,80.62
2023-09-08T04:56:39.722Z,80.83
2023-09-08T04:57:39.751Z,81.30
2023-09-08T04:58:39.687Z,81.51
2023-09-08T04:59:39.664Z,79.66
2023-09-08T05:00:39.706Z,79.57
2023-09-08T05:01:39.599Z,80.38
2023-09-08T05:02:39.710Z,79.87
2023-09-08T05:03:39.793Z,79.87
2023-09-08T05:04:39.568Z,82.12
2023-09-08T05:05:39.599Z,84.98
2023-09-08T05:06:39.554Z,86.20
2023-09-08T05:07:39.562Z,86.51
2023-09-08T05:08:39.696Z,86.10
2023-09-08T05:09:39.514Z,86.00
2023-09-08T05:10:39.501Z,86.51
2023-09-08T05:11:39.519Z,86.00
2023-09-08T05:12:39.475Z,85.96
2023-09-08T05:13:39.456Z,85.04
2023-09-08T05:14:39.476Z,83.51
2023-09-08T05:15:39.478Z,82.45
2023-09-08T05:16:39.489Z,82.45
2023-09-08T05:17:39.466Z,82.75
2023-09-08T05:18:39.421Z,81.49
2023-09-08T05:19:39.385Z,79.55
2023-09-08T05:20:39.368Z,78.53
2023-09-08T05:21:39.391Z,77.72
2023-09-08T05:22:39.354Z,79.25
2023-09-08T05:23:39.327Z,79.96
2023-09-08T05:24:39.310Z,79.32
2023-09-08T05:25:39.396Z,80.66
2023-09-08T05:26:39.335Z,80.69
2023-09-08T05:27:39.262Z,80.35
2023-09-08T05:28:40.113Z,81.23
2023-09-08T05:29:39.242Z,80.68
2023-09-08T05:30:39.266Z,80.50
2023-09-08T05:31:39.207Z,79.85
2023-09-08T05:32:39.286Z,79.41
2023-09-08T05:33:39.206Z,79.21
2023-09-08T05:34:39.200Z,79.41
2023-09-08T05:35:39.188Z,78.80
2023-09-08T05:36:39.224Z,78.80
2023-09-08T05:37:39.133Z,79.35
2023-09-08T05:38:39.119Z,79.35
2023-09-08T05:39:39.133Z,78.74
2023-09-08T05:40:39.119Z,79.38
2023-09-08T05:41:39.085Z,79.99
2023-09-08T05:42:39.085Z,80.50
2023-09-08T05:43:39.118Z,81.41
2023-09-08T05:44:39.117Z,82.33
2023-09-08T05:45:39.035Z,82.73
2023-09-08T05:46:39.100Z,82.53
2023-09-08T05:47:39.048Z,81.31
2023-09-08T05:48:39.027Z,82.12
2023-09-08T05:49:39.074Z,82.64
2023-09-08T05:50:38.979Z,82.73
2023-09-08T05:51:38.966Z,83.54
2023-09-08T05:52:38.964Z,84.05
2023-09-08T05:53:38.948Z,84.36
2023-09-08T05:54:38.931Z,84.60
2023-09-08T05:55:38.887Z,84.80
2023-09-08T05:56:38.891Z,85.11
2023-09-08T05:57:38.880Z,84.91
2023-09-08T05:58:38.884Z,85.41
2023-09-08T05:59:38.881Z,85.31
2023-09-08T06:00:38.824Z,85.21
2023-09-08T06:01:38.848Z,85.01
2023-09-08T06:02:38.886Z,83.75
2023-09-08T06:03:39.011Z,82.94
2023-09-08T06:04:38.822Z,84.38
2023-09-08T06:05:38.775Z,82.42
2023-09-08T06:06:38.752Z,80.99
2023-09-08T06:07:39.045Z,80.05
2023-09-08T06:08:38.725Z,80.65
2023-09-08T06:09:38.773Z,80.29
2023-09-08T06:10:38.713Z,80.90
2023-09-08T06:11:38.710Z,81.81
2023-09-08T06:12:38.757Z,81.71
2023-09-08T06:13:38.652Z,82.01
2023-09-08T06:14:38.791Z,82.01
2023-09-08T06:15:38.661Z,81.81
2023-09-08T06:16:38.803Z,82.01
2023-09-08T06:17:38.617Z,82.62
2023-09-08T06:18:38.588Z,82.52
2023-09-08T06:19:38.575Z,82.78
2023-09-08T06:20:38.617Z,82.89
2023-09-08T06:21:38.555Z,82.07
2023-09-08T06:22:38.553Z,84.27
2023-09-08T06:23:38.543Z,84.02
2023-09-08T06:24:38.522Z,83.03
2023-09-08T06:25:38.526Z,81.68
2023-09-08T06:26:38.534Z,80.49
2023-09-08T06:27:38.473Z,79.41
2023-09-08T06:28:38.693Z,78.36
2023-09-08T06:29:38.439Z,76.64
2023-09-08T06:30:38.447Z,74.72
2023-09-08T06:31:38.459Z,73.10
2023-09-08T06:32:38.469Z,71.50
2023-09-08T06:33:38.544Z,69.29
2023-09-08T06:34:38.626Z,66.99
2023-09-08T06:35:38.388Z,65.80
2023-09-08T06:36:38.399Z,63.14
2023-09-08T06:37:38.354Z,61.66
2023-09-08T06:38:38.595Z,61.00
2023-09-08T06:39:38.382Z,58.86
2023-09-08T06:40:38.334Z,58.27
2023-09-08T06:41:38.293Z,57.53
2023-09-08T06:42:38.318Z,55.19
2023-09-08T06:43:38.275Z,53.06
2023-09-08T06:44:38.263Z,52.24
2023-09-08T06:45:38.242Z,52.78
2023-09-08T06:46:38.326Z,52.63
2023-09-08T06:47:38.337Z,50.12
2023-09-08T06:48:38.600Z,49.99
2023-09-08T06:49:38.247Z,47.88
2023-09-08T06:50:38.235Z,47.95
2023-09-08T06:51:38.168Z,47.83
2023-09-08T06:52:38.168Z,46.21
2023-09-08T06:53:38.183Z,46.97
2023-09-08T06:54:38.141Z,46.44
2023-09-08T06:55:38.133Z,45.92
2023-09-08T06:56:38.088Z,44.62
2023-09-08T06:57:38.156Z,44.02
2023-09-08T06:58:38.185Z,43.21
2023-09-08T06:59:38.065Z,42.91
2023-09-08T07:00:38.112Z,42.99
2023-09-08T07:01:38.249Z,43.37
2023-09-08T07:02:38.150Z,42.27
2023-09-08T07:03:38.856Z,42.25
2023-09-08T07:04:38.104Z,40.95
2023-09-08T07:05:37.987Z,40.55
2023-09-08T07:06:37.965Z,40.84
2023-09-08T07:07:37.985Z,40.23
2023-09-08T07:08:38.039Z,40.70
2023-09-08T07:09:37.951Z,39.90
2023-09-08T07:10:37.927Z,38.53
2023-09-08T07:11:37.917Z,38.32
2023-09-08T07:12:37.908Z,38.02
2023-09-08T07:13:37.918Z,38.20
2023-09-08T07:14:37.873Z,38.10
2023-09-08T07:15:37.859Z,38.09
2023-09-08T07:16:38.031Z,37.77
2023-09-08T07:17:37.877Z,37.29
2023-09-08T07:18:37.953Z,36.32
2023-09-08T07:19:37.828Z,36.59
2023-09-08T07:20:37.789Z,36.49
2023-09-08T07:21:37.864Z,36.18
2023-09-08T07:22:37.825Z,36.57
2023-09-08T07:23:37.764Z,35.88
2023-09-08T07:24:37.755Z,35.88
2023-09-08T07:25:37.757Z,35.29
2023-09-08T07:26:37.724Z,36.15
2023-09-08T07:27:37.714Z,35.25
2023-09-08T07:28:37.982Z,35.94
2023-09-08T07:29:37.685Z,35.33
2023-09-08T07:30:37.734Z,33.88
2023-09-08T07:31:37.728Z,34.95
2023-09-08T07:32:37.712Z,35.43
2023-09-08T07:33:37.670Z,33.88
2023-09-08T07:34:37.635Z,35.05
2023-09-08T07:35:37.637Z,34.66
2023-09-08T07:36:37.618Z,34.46
2023-09-08T07:37:37.592Z,33.67
2023-09-08T07:38:37.883Z,34.16
2023-09-08T07:39:37.571Z,35.51
2023-09-08T07:40:37.566Z,34.44
2023-09-08T07:41:37.561Z,34.91
2023-09-08T07:42:37.531Z,33.84
2023-09-08T07:43:37.605Z,33.75
2023-09-08T07:44:37.570Z,34.72
2023-09-08T07:45:37.524Z,34.62
2023-09-08T07:46:37.475Z,34.80
2023-09-08T07:47:37.483Z,32.94
2023-09-08T07:48:37.818Z,33.22
2023-09-08T07:49:37.508Z,33.41
2023-09-08T07:50:37.434Z,33.89
2023-09-08T07:51:37.408Z,33.69
2023-09-08T07:52:37.412Z,33.10
2023-09-08T07:53:37.455Z,32.71
2023-09-08T07:54:37.403Z,33.12
2023-09-08T07:55:37.379Z,33.60
2023-09-08T07:56:37.401Z,33.59
2023-09-08T07:57:37.365Z,32.99
2023-09-08T07:58:37.548Z,32.99
2023-09-08T07:59:38.135Z,32.49
2023-09-08T08:00:37.308Z,33.07
2023-09-08T08:01:37.349Z,32.47
2023-09-08T08:02:37.331Z,33.05
2023-09-08T08:03:37.471Z,32.87
2023-09-08T08:04:37.337Z,32.29
2023-09-08T08:05:37.318Z,32.68
2023-09-08T08:06:37.256Z,32.31
2023-09-08T08:07:37.232Z,32.70
2023-09-08T08:08:37.520Z,31.73
2023-09-08T08:09:37.217Z,33.01
2023-09-08T08:10:37.195Z,34.09
2023-09-08T08:11:37.249Z,33.97
2023-09-08T08:12:37.171Z,32.81
2023-09-08T08:13:37.168Z,33.47
2023-09-08T08:14:37.171Z,34.62
2023-09-08T08:15:37.131Z,32.57
2023-09-08T08:16:37.155Z,32.18
2023-09-08T08:17:37.208Z,32.18
2023-09-08T08:18:37.390Z,31.89
2023-09-08T08:19:37.084Z,31.33
2023-09-08T08:20:37.152Z,33.78
2023-09-08T08:21:37.070Z,32.23
2023-09-08T08:22:37.071Z,33.10
2023-09-08T08:23:37.051Z,32.71
2023-09-08T08:24:37.028Z,34.45
2023-09-08T08:25:37.016Z,32.71
2023-09-08T08:26:37.010Z,32.79
2023-09-08T08:27:37.019Z,32.12
2023-09-08T08:28:37.391Z,31.52
2023-09-08T08:29:36.954Z,31.23
2023-09-08T08:30:37.018Z,31.44
2023-09-08T08:31:37.015Z,31.05
2023-09-08T08:32:36.980Z,31.36
2023-09-08T08:33:36.970Z,31.67
2023-09-08T08:34:36.896Z,31.87
2023-09-08T08:35:36.898Z,33.04
2023-09-08T08:36:36.972Z,33.02
2023-09-08T08:37:36.865Z,33.41
2023-09-08T08:38:37.098Z,31.57
2023-09-08T08:39:36.859Z,32.06
2023-09-08T08:40:36.850Z,31.59
2023-09-08T08:41:36.829Z,33.14
2023-09-08T08:42:36.840Z,32.46
2023-09-08T08:43:36.836Z,32.84
2023-09-08T08:44:36.790Z,32.82
2023-09-08T08:45:36.817Z,32.54
2023-09-08T08:46:36.752Z,32.92
2023-09-08T08:47:36.864Z,32.24
2023-09-08T08:48:37.034Z,31.76
2023-09-08T08:49:36.740Z,31.87
2023-09-08T08:50:36.732Z,31.97
2023-09-08T08:51:36.785Z,32.06
2023-09-08T08:52:36.685Z,32.44
2023-09-08T08:53:36.692Z,30.02
2023-09-08T08:54:36.726Z,31.20
2023-09-08T08:55:36.652Z,31.89
2023-09-08T08:56:36.656Z,32.20
2023-09-08T08:57:36.633Z,32.31
2023-09-08T08:58:36.887Z,32.68
2023-09-08T08:59:36.615Z,32.10
2023-09-08T09:00:36.605Z,31.71
2023-09-08T09:01:36.583Z,33.26
2023-09-08T09:02:36.602Z,33.34
2023-09-08T09:03:36.578Z,31.49
2023-09-08T09:04:36.558Z,31.39
2023-09-08T09:05:36.590Z,30.23
2023-09-08T09:06:36.511Z,30.24
2023-09-08T09:07:36.532Z,31.60
2023-09-08T09:08:36.631Z,31.31
2023-09-08T09:09:36.580Z,30.92
2023-09-08T09:10:36.468Z,31.12
2023-09-08T09:11:36.541Z,31.71
2023-09-08T09:12:36.508Z,32.00
2023-09-08T09:13:36.582Z,30.74
2023-09-08T09:14:36.533Z,32.87
2023-09-08T09:15:36.452Z,31.62
2023-09-08T09:16:36.542Z,32.10
2023-09-08T09:17:36.489Z,31.71
2023-09-08T09:18:36.801Z,33.15
2023-09-08T09:19:36.402Z,33.06
2023-09-08T09:20:36.410Z,31.99
2023-09-08T09:21:36.337Z,32.28
2023-09-08T09:22:36.344Z,32.28
2023-09-08T09:23:36.324Z,33.34
2023-09-08T09:24:36.326Z,30.34
2023-09-08T09:25:36.423Z,31.32
2023-09-08T09:26:36.284Z,31.42
2023-09-08T09:27:36.350Z,31.53
2023-09-08T09:28:36.526Z,31.05
2023-09-08T09:29:36.253Z,30.19
2023-09-08T09:30:36.257Z,31.76
2023-09-08T09:31:36.232Z,31.27
2023-09-08T09:32:36.275Z,30.61
2023-09-08T09:33:36.292Z,32.07
2023-09-08T09:34:36.178Z,32.67
2023-09-08T09:35:37.652Z,32.47
2023-09-08T09:36:36.161Z,32.57
2023-09-08T09:37:36.184Z,32.18
2023-09-08T09:38:36.341Z,32.76
2023-09-08T09:39:36.113Z,33.53
2023-09-08T09:40:36.154Z,34.40
2023-09-08T09:41:36.112Z,33.72
2023-09-08T09:42:36.096Z,34.20
2023-09-08T09:43:36.090Z,32.45
2023-09-08T09:44:36.073Z,32.18
2023-09-08T09:45:36.100Z,30.91
2023-09-08T09:46:36.023Z,30.15
2023-09-08T09:47:36.100Z,30.96
2023-09-08T09:48:36.273Z,31.54
2023-09-08T09:49:36.025Z,32.05
2023-09-08T09:50:36.028Z,33.61
2023-09-08T09:51:35.975Z,34.58
2023-09-08T09:52:35.988Z,33.14
2023-09-08T09:53:35.972Z,33.53
2023-09-08T09:54:35.948Z,31.19
2023-09-08T09:55:35.938Z,32.86
2023-09-08T09:56:35.933Z,32.08
2023-09-08T09:57:35.908Z,33.06
2023-09-08T09:58:36.099Z,33.93
2023-09-08T09:59:35.887Z,35.20
2023-09-08T10:00:35.935Z,35.00
2023-09-08T10:01:35.897Z,32.86
2023-09-08T10:02:35.902Z,33.73
2023-09-08T10:03:35.898Z,35.38
2023-09-08T10:04:35.829Z,31.87
2023-09-08T10:05:35.801Z,34.12
2023-09-08T10:06:35.823Z,35.39
2023-09-08T10:07:35.779Z,34.40
2023-09-08T10:08:35.872Z,31.59
2023-09-08T10:09:35.777Z,33.53
2023-09-08T10:10:35.824Z,32.55
2023-09-08T10:11:35.739Z,33.73
2023-09-08T10:12:35.748Z,32.18
2023-09-08T10:13:35.729Z,33.26
2023-09-08T10:14:35.696Z,32.87
2023-09-08T10:15:35.812Z,32.70
2023-09-08T10:16:35.679Z,33.87
2023-09-08T10:17:35.719Z,34.06
2023-09-08T10:18:35.754Z,35.72
2023-09-08T10:19:35.632Z,37.09
2023-09-08T10:20:35.697Z,33.77
2023-09-08T10:21:35.603Z,33.18
2023-09-08T10:22:35.609Z,34.14
2023-09-08T10:23:35.599Z,36.10
2023-09-08T10:24:35.626Z,34.83
2023-09-08T10:25:35.578Z,32.58
2023-09-08T10:26:35.550Z,32.48
2023-09-08T10:27:35.590Z,34.52
2023-09-08T10:28:35.802Z,33.15
2023-09-08T10:29:35.548Z,32.86
2023-09-08T10:30:35.519Z,31.22
2023-09-08T10:31:35.536Z,33.87
2023-09-08T10:32:35.544Z,33.58
2023-09-08T10:33:35.509Z,36.02
2023-09-08T10:34:35.460Z,34.36
2023-09-08T10:35:35.465Z,33.28
2023-09-08T10:36:36.697Z,35.24
2023-09-08T10:37:35.449Z,33.09
2023-09-08T10:38:35.901Z,32.89
2023-09-08T10:39:35.460Z,35.53
2023-09-08T10:40:35.405Z,34.55
2023-09-08T10:41:35.394Z,33.28
2023-09-08T10:42:35.339Z,34.84
2023-09-08T10:43:35.385Z,34.14
2023-09-08T10:44:35.366Z,30.84
2023-09-08T10:45:35.373Z,31.52
2023-09-08T10:46:35.345Z,32.62
2023-09-08T10:47:35.490Z,33.79
2023-09-08T10:48:35.589Z,35.43
2023-09-08T10:49:35.268Z,33.77
2023-09-08T10:50:35.272Z,31.31
2023-09-08T10:51:35.258Z,33.46
2023-09-08T10:52:35.249Z,32.89
2023-09-08T10:53:35.224Z,36.51
2023-09-08T10:54:35.205Z,36.70
2023-09-08T10:55:35.223Z,32.79
2023-09-08T10:56:35.228Z,35.33
2023-09-08T10:57:35.192Z,34.36
2023-09-08T10:58:35.445Z,31.43
2023-09-08T10:59:35.180Z,32.60
2023-09-08T11:00:35.147Z,34.45
2023-09-08T11:01:35.174Z,36.58
2023-09-08T11:02:35.184Z,34.92
2023-09-08T11:03:35.235Z,34.92
2023-09-08T11:04:35.216Z,33.75
2023-09-08T11:05:35.070Z,34.63
2023-09-08T11:06:35.051Z,31.72
2023-09-08T11:07:35.048Z,32.50
2023-09-08T11:08:35.391Z,32.50
2023-09-08T11:09:35.049Z,31.15
2023-09-08T11:10:35.000Z,33.20
2023-09-08T11:11:35.087Z,32.23
2023-09-08T11:12:34.990Z,32.03
2023-09-08T11:13:35.008Z,31.15
2023-09-08T11:14:35.028Z,31.16
2023-09-08T11:15:34.955Z,31.26
2023-09-08T11:16:35.025Z,34.78
2023-09-08T11:17:34.963Z,34.57
2023-09-08T11:18:35.238Z,32.23
2023-09-08T11:19:34.908Z,32.13
2023-09-08T11:20:34.930Z,34.47
2023-09-08T11:21:34.861Z,35.64
2023-09-08T11:22:34.884Z,35.35
2023-09-08T11:23:34.853Z,33.01
2023-09-08T11:24:34.884Z,34.38
2023-09-08T11:25:34.853Z,36.91
2023-09-08T11:26:34.816Z,35.84
2023-09-08T11:27:34.825Z,35.04
2023-09-08T11:28:35.203Z,33.18
2023-09-08T11:29:34.774Z,33.97
2023-09-08T11:30:34.815Z,34.65
2023-09-08T11:31:34.803Z,34.63
2023-09-08T11:32:34.786Z,34.65
2023-09-08T11:33:34.755Z,32.87
2023-09-08T11:34:34.713Z,33.09
2023-09-08T11:35:34.704Z,38.75
2023-09-08T11:36:34.729Z,36.31
2023-09-08T11:37:34.685Z,38.16
2023-09-08T11:38:34.895Z,36.90
2023-09-08T11:39:34.672Z,33.50
2023-09-08T11:40:34.659Z,39.06
2023-09-08T11:41:34.643Z,36.43
2023-09-08T11:42:34.637Z,33.50
2023-09-08T11:43:34.614Z,35.16
2023-09-08T11:44:34.620Z,35.25
2023-09-08T11:45:34.592Z,33.89
2023-09-08T11:46:34.693Z,35.74
2023-09-08T11:47:34.593Z,39.16
2023-09-08T11:48:34.867Z,33.69
2023-09-08T11:49:34.567Z,37.40
2023-09-08T11:50:34.521Z,33.89
2023-09-08T11:51:34.523Z,36.52
2023-09-08T11:52:34.503Z,35.35
2023-09-08T11:53:34.499Z,34.47
2023-09-08T11:54:34.568Z,35.55
2023-09-08T11:55:34.512Z,35.53
2023-09-08T11:56:34.893Z,35.53
2023-09-08T11:57:34.441Z,35.53
2023-09-08T11:58:34.764Z,35.24
2023-09-08T11:59:34.432Z,33.77
2023-09-08T12:00:34.422Z,34.45
2023-09-08T12:01:34.615Z,37.29
2023-09-08T12:02:34.460Z,37.77
2023-09-08T12:03:34.470Z,38.35
2023-09-08T12:04:34.410Z,36.29
2023-09-08T12:05:34.330Z,35.80
2023-09-08T12:06:34.348Z,36.00
2023-09-08T12:07:34.326Z,40.58
2023-09-08T12:08:34.643Z,33.75
2023-09-08T12:09:34.311Z,36.78
2023-09-08T12:10:34.277Z,36.98
2023-09-08T12:11:34.283Z,34.63
2023-09-08T12:12:34.256Z,33.07
2023-09-08T12:13:34.254Z,38.24
2023-09-08T12:14:34.216Z,37.55
2023-09-08T12:15:34.307Z,40.09
2023-09-08T12:16:34.285Z,39.41
2023-09-08T12:17:34.199Z,39.31
2023-09-08T12:18:34.318Z,39.20
2023-09-08T12:19:34.178Z,38.42
2023-09-08T12:20:34.137Z,37.45
2023-09-08T12:21:34.138Z,33.56
2023-09-08T12:22:34.161Z,32.19
2023-09-08T12:23:34.116Z,35.02
2023-09-08T12:24:34.108Z,41.17
2023-09-08T12:25:34.714Z,39.61
2023-09-08T12:26:34.064Z,38.32
2023-09-08T12:27:34.081Z,36.76
2023-09-08T12:28:34.239Z,36.27
2023-09-08T12:29:34.047Z,34.42
2023-09-08T12:30:34.130Z,36.37
2023-09-08T12:31:34.069Z,36.06
2023-09-08T12:32:34.026Z,35.96
2023-09-08T12:33:33.982Z,32.55
2023-09-08T12:34:33.967Z,36.25
2023-09-08T12:35:33.952Z,37.62
2023-09-08T12:36:33.968Z,36.45
2023-09-08T12:37:34.044Z,32.26
2023-09-08T12:38:34.158Z,31.67
2023-09-08T12:39:33.942Z,31.88
2023-09-08T12:40:33.898Z,35.47
2023-09-08T12:41:33.889Z,34.40
2023-09-08T12:42:35.386Z,33.04
2023-09-08T12:43:34.904Z,32.26
2023-09-08T12:44:33.883Z,33.43
2023-09-08T12:45:33.882Z,35.47
2023-09-08T12:46:33.886Z,32.75
2023-09-08T12:47:33.934Z,32.75
2023-09-08T12:48:33.813Z,31.48
2023-09-08T12:49:33.789Z,32.26
2023-09-08T12:50:33.808Z,36.55
2023-09-08T12:51:33.752Z,35.47
2023-09-08T12:52:33.755Z,31.87